sensor_id;sensor_type;location;lat;lon;timestamp;P1;durP1;ratioP1;P2;durP2;ratioP2
16642;SDS011;8435;52.184;5.406;2023-05-20T00:01:56;5.53;;;3.50;;
16642;SDS011;8435;52.184;5.406;2023-05-20T00:04:23;5.57;;;3.23;;
16642;SDS011;8435;52.184;5.406;2023-05-20T00:06:49;5.90;;;3.07;;
16642;SDS011;8435;52.184;5.406;2023-05-20T00:09:16;4.50;;;3.30;;
16642;SDS011;8435;52.184;5.406;2023-05-20T00:11:44;5.90;;;3.10;;
16642;SDS011;8435;52.184;5.406;2023-05-20T00:14:12;8.87;;;3.40;;
16642;SDS011;8435;52.184;5.406;2023-05-20T00:16:39;4.53;;;2.93;;
16642;SDS011;8435;52.184;5.406;2023-05-20T00:19:07;6.63;;;3.30;;
16642;SDS011;8435;52.184;5.406;2023-05-20T00:21:34;5.03;;;3.30;;
16642;SDS011;8435;52.184;5.406;2023-05-20T00:24:00;3.90;;;3.03;;
16642;SDS011;8435;52.184;5.406;2023-05-20T00:26:27;4.93;;;3.40;;
16642;SDS011;8435;52.184;5.406;2023-05-20T00:28:54;7.20;;;3.60;;
16642;SDS011;8435;52.184;5.406;2023-05-20T00:31:23;4.00;;;3.40;;
16642;SDS011;8435;52.184;5.406;2023-05-20T00:33:50;6.03;;;3.90;;
16642;SDS011;8435;52.184;5.406;2023-05-20T00:36:16;4.73;;;3.33;;
16642;SDS011;8435;52.184;5.406;2023-05-20T00:38:43;4.27;;;3.37;;
16642;SDS011;8435;52.184;5.406;2023-05-20T00:41:10;4.83;;;3.83;;
16642;SDS011;8435;52.184;5.406;2023-05-20T00:43:37;3.80;;;3.50;;
16642;SDS011;8435;52.184;5.406;2023-05-20T00:46:04;7.73;;;4.00;;
16642;SDS011;8435;52.184;5.406;2023-05-20T00:48:35;8.43;;;3.80;;
16642;SDS011;8435;52.184;5.406;2023-05-20T00:51:06;6.27;;;3.90;;
16642;SDS011;8435;52.184;5.406;2023-05-20T00:53:33;6.57;;;4.33;;
16642;SDS011;8435;52.184;5.406;2023-05-20T00:56:01;4.63;;;3.57;;
16642;SDS011;8435;52.184;5.406;2023-05-20T00:58:28;4.77;;;4.00;;
16642;SDS011;8435;52.184;5.406;2023-05-20T01:00:56;5.43;;;4.00;;
16642;SDS011;8435;52.184;5.406;2023-05-20T01:03:23;4.17;;;3.77;;
16642;SDS011;8435;52.184;5.406;2023-05-20T01:05:52;6.30;;;4.37;;
16642;SDS011;8435;52.184;5.406;2023-05-20T01:08:22;5.47;;;4.10;;
16642;SDS011;8435;52.184;5.406;2023-05-20T01:10:50;6.57;;;4.33;;
16642;SDS011;8435;52.184;5.406;2023-05-20T01:13:22;5.93;;;3.80;;
16642;SDS011;8435;52.184;5.406;2023-05-20T01:15:53;6.57;;;4.30;;
16642;SDS011;8435;52.184;5.406;2023-05-20T01:18:20;6.47;;;4.00;;
16642;SDS011;8435;52.184;5.406;2023-05-20T01:20:55;5.97;;;4.43;;
16642;SDS011;8435;52.184;5.406;2023-05-20T01:23:31;5.90;;;3.97;;
16642;SDS011;8435;52.184;5.406;2023-05-20T01:25:59;5.03;;;4.10;;
16642;SDS011;8435;52.184;5.406;2023-05-20T01:28:25;6.43;;;3.90;;
16642;SDS011;8435;52.184;5.406;2023-05-20T01:30:55;7.23;;;4.10;;
16642;SDS011;8435;52.184;5.406;2023-05-20T01:33:25;4.47;;;4.00;;
16642;SDS011;8435;52.184;5.406;2023-05-20T01:35:55;5.60;;;4.00;;
16642;SDS011;8435;52.184;5.406;2023-05-20T01:38:23;5.67;;;4.00;;
16642;SDS011;8435;52.184;5.406;2023-05-20T01:40:53;5.47;;;3.90;;
16642;SDS011;8435;52.184;5.406;2023-05-20T01:43:25;9.80;;;4.70;;
16642;SDS011;8435;52.184;5.406;2023-05-20T01:45:52;7.80;;;4.40;;
16642;SDS011;8435;52.184;5.406;2023-05-20T01:48:19;7.33;;;4.03;;
16642;SDS011;8435;52.184;5.406;2023-05-20T01:50:46;5.77;;;3.90;;
16642;SDS011;8435;52.184;5.406;2023-05-20T01:53:16;6.40;;;3.90;;
16642;SDS011;8435;52.184;5.406;2023-05-20T01:55:42;4.50;;;4.10;;
16642;SDS011;8435;52.184;5.406;2023-05-20T01:58:10;7.03;;;4.10;;
16642;SDS011;8435;52.184;5.406;2023-05-20T02:00:37;7.20;;;4.30;;
16642;SDS011;8435;52.184;5.406;2023-05-20T02:03:04;7.13;;;4.33;;
16642;SDS011;8435;52.184;5.406;2023-05-20T02:05:31;5.57;;;3.77;;
16642;SDS011;8435;52.184;5.406;2023-05-20T02:07:58;4.83;;;4.30;;
16642;SDS011;8435;52.184;5.406;2023-05-20T02:10:28;5.07;;;4.07;;
16642;SDS011;8435;52.184;5.406;2023-05-20T02:12:55;5.30;;;4.70;;
16642;SDS011;8435;52.184;5.406;2023-05-20T02:15:23;5.40;;;3.63;;
16642;SDS011;8435;52.184;5.406;2023-05-20T02:17:49;5.33;;;3.90;;
16642;SDS011;8435;52.184;5.406;2023-05-20T02:20:18;8.07;;;4.73;;
16642;SDS011;8435;52.184;5.406;2023-05-20T02:22:45;5.80;;;3.93;;
16642;SDS011;8435;52.184;5.406;2023-05-20T02:25:12;5.40;;;4.00;;
16642;SDS011;8435;52.184;5.406;2023-05-20T02:27:39;6.67;;;4.53;;
16642;SDS011;8435;52.184;5.406;2023-05-20T02:30:06;6.60;;;4.37;;
16642;SDS011;8435;52.184;5.406;2023-05-20T02:32:35;6.70;;;4.23;;
16642;SDS011;8435;52.184;5.406;2023-05-20T02:35:02;4.40;;;4.00;;
16642;SDS011;8435;52.184;5.406;2023-05-20T02:37:30;7.43;;;4.37;;
16642;SDS011;8435;52.184;5.406;2023-05-20T02:39:56;6.83;;;4.30;;
16642;SDS011;8435;52.184;5.406;2023-05-20T02:42:23;6.63;;;4.23;;
16642;SDS011;8435;52.184;5.406;2023-05-20T02:44:50;6.23;;;4.30;;
16642;SDS011;8435;52.184;5.406;2023-05-20T02:47:20;6.67;;;4.80;;
16642;SDS011;8435;52.184;5.406;2023-05-20T02:49:48;6.47;;;4.63;;
16642;SDS011;8435;52.184;5.406;2023-05-20T02:52:15;6.43;;;4.40;;
16642;SDS011;8435;52.184;5.406;2023-05-20T02:54:42;6.13;;;4.07;;
16642;SDS011;8435;52.184;5.406;2023-05-20T02:57:13;6.43;;;4.70;;
16642;SDS011;8435;52.184;5.406;2023-05-20T02:59:40;5.40;;;4.40;;
16642;SDS011;8435;52.184;5.406;2023-05-20T03:02:07;8.93;;;4.20;;
16642;SDS011;8435;52.184;5.406;2023-05-20T03:04:33;6.00;;;4.27;;
16642;SDS011;8435;52.184;5.406;2023-05-20T03:07:04;6.63;;;4.67;;
16642;SDS011;8435;52.184;5.406;2023-05-20T03:09:33;7.53;;;4.50;;
16642;SDS011;8435;52.184;5.406;2023-05-20T03:12:00;5.07;;;4.33;;
16642;SDS011;8435;52.184;5.406;2023-05-20T03:14:29;6.87;;;4.43;;
16642;SDS011;8435;52.184;5.406;2023-05-20T03:16:56;5.63;;;4.40;;
16642;SDS011;8435;52.184;5.406;2023-05-20T03:19:24;6.03;;;4.33;;
16642;SDS011;8435;52.184;5.406;2023-05-20T03:21:50;6.37;;;4.47;;
16642;SDS011;8435;52.184;5.406;2023-05-20T03:24:18;6.37;;;4.40;;
16642;SDS011;8435;52.184;5.406;2023-05-20T03:26:47;5.90;;;4.20;;
16642;SDS011;8435;52.184;5.406;2023-05-20T03:29:14;6.07;;;4.33;;
16642;SDS011;8435;52.184;5.406;2023-05-20T03:31:42;4.27;;;3.87;;
16642;SDS011;8435;52.184;5.406;2023-05-20T03:34:08;6.93;;;4.07;;
16642;SDS011;8435;52.184;5.406;2023-05-20T03:36:37;5.30;;;4.40;;
16642;SDS011;8435;52.184;5.406;2023-05-20T03:39:04;6.47;;;4.60;;
16642;SDS011;8435;52.184;5.406;2023-05-20T03:41:32;5.33;;;4.23;;
16642;SDS011;8435;52.184;5.406;2023-05-20T03:43:59;5.73;;;3.77;;
16642;SDS011;8435;52.184;5.406;2023-05-20T03:46:29;4.87;;;3.97;;
16642;SDS011;8435;52.184;5.406;2023-05-20T03:48:58;5.93;;;4.47;;
16642;SDS011;8435;52.184;5.406;2023-05-20T03:51:26;6.27;;;4.23;;
16642;SDS011;8435;52.184;5.406;2023-05-20T03:53:53;7.17;;;4.60;;
16642;SDS011;8435;52.184;5.406;2023-05-20T03:56:19;5.57;;;4.33;;
16642;SDS011;8435;52.184;5.406;2023-05-20T03:58:48;5.70;;;3.90;;
16642;SDS011;8435;52.184;5.406;2023-05-20T04:01:15;6.67;;;4.43;;
16642;SDS011;8435;52.184;5.406;2023-05-20T04:03:45;6.37;;;4.47;;
16642;SDS011;8435;52.184;5.406;2023-05-20T04:06:12;5.40;;;4.00;;
16642;SDS011;8435;52.184;5.406;2023-05-20T04:08:39;6.30;;;4.40;;
16642;SDS011;8435;52.184;5.406;2023-05-20T04:11:09;5.67;;;4.17;;
16642;SDS011;8435;52.184;5.406;2023-05-20T04:13:35;6.73;;;4.00;;
16642;SDS011;8435;52.184;5.406;2023-05-20T04:16:05;6.97;;;4.67;;
16642;SDS011;8435;52.184;5.406;2023-05-20T04:18:32;4.77;;;4.20;;
16642;SDS011;8435;52.184;5.406;2023-05-20T04:21:03;5.47;;;4.50;;
16642;SDS011;8435;52.184;5.406;2023-05-20T04:23:30;4.40;;;4.00;;
16642;SDS011;8435;52.184;5.406;2023-05-20T04:25:57;7.03;;;4.30;;
16642;SDS011;8435;52.184;5.406;2023-05-20T04:28:26;5.20;;;4.00;;
16642;SDS011;8435;52.184;5.406;2023-05-20T04:30:57;4.93;;;4.23;;
16642;SDS011;8435;52.184;5.406;2023-05-20T04:33:26;5.80;;;4.27;;
16642;SDS011;8435;52.184;5.406;2023-05-20T04:35:53;4.57;;;4.17;;
16642;SDS011;8435;52.184;5.406;2023-05-20T04:38:22;6.87;;;4.30;;
16642;SDS011;8435;52.184;5.406;2023-05-20T04:40:53;5.47;;;4.23;;
16642;SDS011;8435;52.184;5.406;2023-05-20T04:43:22;6.30;;;4.23;;
16642;SDS011;8435;52.184;5.406;2023-05-20T04:45:49;6.30;;;4.00;;
16642;SDS011;8435;52.184;5.406;2023-05-20T04:48:20;5.80;;;4.50;;
16642;SDS011;8435;52.184;5.406;2023-05-20T04:50:48;4.33;;;3.93;;
16642;SDS011;8435;52.184;5.406;2023-05-20T04:53:16;6.13;;;4.00;;
16642;SDS011;8435;52.184;5.406;2023-05-20T04:55:43;5.20;;;4.03;;
16642;SDS011;8435;52.184;5.406;2023-05-20T04:58:10;5.60;;;3.70;;
16642;SDS011;8435;52.184;5.406;2023-05-20T05:00:39;5.20;;;3.93;;
16642;SDS011;8435;52.184;5.406;2023-05-20T05:03:07;5.60;;;4.07;;
16642;SDS011;8435;52.184;5.406;2023-05-20T05:05:34;5.80;;;4.33;;
16642;SDS011;8435;52.184;5.406;2023-05-20T05:08:03;4.40;;;3.73;;
16642;SDS011;8435;52.184;5.406;2023-05-20T05:10:33;4.47;;;4.07;;
16642;SDS011;8435;52.184;5.406;2023-05-20T05:13:01;5.03;;;3.90;;
16642;SDS011;8435;52.184;5.406;2023-05-20T05:15:28;4.40;;;3.73;;
16642;SDS011;8435;52.184;5.406;2023-05-20T05:17:55;4.80;;;4.23;;
16642;SDS011;8435;52.184;5.406;2023-05-20T05:20:24;4.50;;;4.10;;
16642;SDS011;8435;52.184;5.406;2023-05-20T05:22:51;6.60;;;3.97;;
16642;SDS011;8435;52.184;5.406;2023-05-20T05:25:19;7.27;;;4.50;;
16642;SDS011;8435;52.184;5.406;2023-05-20T05:27:48;5.80;;;3.83;;
16642;SDS011;8435;52.184;5.406;2023-05-20T05:30:15;4.57;;;3.90;;
16642;SDS011;8435;52.184;5.406;2023-05-20T05:32:42;5.90;;;3.93;;
16642;SDS011;8435;52.184;5.406;2023-05-20T05:35:09;5.10;;;4.20;;
16642;SDS011;8435;52.184;5.406;2023-05-20T05:37:39;4.53;;;3.60;;
16642;SDS011;8435;52.184;5.406;2023-05-20T05:40:07;5.27;;;3.97;;
16642;SDS011;8435;52.184;5.406;2023-05-20T05:42:36;5.83;;;3.80;;
16642;SDS011;8435;52.184;5.406;2023-05-20T05:45:03;7.23;;;4.33;;
16642;SDS011;8435;52.184;5.406;2023-05-20T05:47:33;5.23;;;4.00;;
16642;SDS011;8435;52.184;5.406;2023-05-20T05:50:00;4.10;;;3.70;;
16642;SDS011;8435;52.184;5.406;2023-05-20T05:52:27;4.37;;;3.73;;
16642;SDS011;8435;52.184;5.406;2023-05-20T05:54:54;5.33;;;3.70;;
16642;SDS011;8435;52.184;5.406;2023-05-20T05:57:20;5.63;;;4.13;;
16642;SDS011;8435;52.184;5.406;2023-05-20T05:59:49;7.60;;;3.87;;
16642;SDS011;8435;52.184;5.406;2023-05-20T06:02:16;5.10;;;3.63;;
16642;SDS011;8435;52.184;5.406;2023-05-20T06:04:43;5.77;;;3.87;;
16642;SDS011;8435;52.184;5.406;2023-05-20T06:07:09;8.40;;;3.57;;
16642;SDS011;8435;52.184;5.406;2023-05-20T06:09:39;6.47;;;4.37;;
16642;SDS011;8435;52.184;5.406;2023-05-20T06:12:06;6.03;;;4.20;;
16642;SDS011;8435;52.184;5.406;2023-05-20T06:14:32;4.63;;;3.60;;
16642;SDS011;8435;52.184;5.406;2023-05-20T06:17:01;4.43;;;3.30;;
16642;SDS011;8435;52.184;5.406;2023-05-20T06:19:28;4.73;;;3.80;;
16642;SDS011;8435;52.184;5.406;2023-05-20T06:21:55;4.53;;;3.90;;
16642;SDS011;8435;52.184;5.406;2023-05-20T06:24:22;3.93;;;3.60;;
16642;SDS011;8435;52.184;5.406;2023-05-20T06:26:49;5.07;;;3.40;;
16642;SDS011;8435;52.184;5.406;2023-05-20T06:29:16;5.20;;;3.77;;
16642;SDS011;8435;52.184;5.406;2023-05-20T06:31:43;4.00;;;3.60;;
16642;SDS011;8435;52.184;5.406;2023-05-20T06:34:17;5.28;;;3.72;;
16642;SDS011;8435;52.184;5.406;2023-05-20T06:36:44;5.90;;;3.53;;
16642;SDS011;8435;52.184;5.406;2023-05-20T06:39:13;4.15;;;3.28;;
16642;SDS011;8435;52.184;5.406;2023-05-20T06:41:40;4.35;;;2.88;;
16642;SDS011;8435;52.184;5.406;2023-05-20T06:44:08;3.13;;;2.83;;
16642;SDS011;8435;52.184;5.406;2023-05-20T06:46:34;3.50;;;2.92;;
16642;SDS011;8435;52.184;5.406;2023-05-20T06:49:01;3.33;;;3.03;;
16642;SDS011;8435;52.184;5.406;2023-05-20T06:51:29;3.13;;;2.83;;
16642;SDS011;8435;52.184;5.406;2023-05-20T06:53:56;3.25;;;2.80;;
16642;SDS011;8435;52.184;5.406;2023-05-20T06:56:26;3.03;;;2.83;;
16642;SDS011;8435;52.184;5.406;2023-05-20T06:58:53;3.85;;;2.70;;
16642;SDS011;8435;52.184;5.406;2023-05-20T07:01:20;3.85;;;3.10;;
16642;SDS011;8435;52.184;5.406;2023-05-20T07:03:47;3.65;;;2.85;;
16642;SDS011;8435;52.184;5.406;2023-05-20T07:06:20;4.18;;;2.80;;
16642;SDS011;8435;52.184;5.406;2023-05-20T07:08:55;3.78;;;2.90;;
16642;SDS011;8435;52.184;5.406;2023-05-20T07:11:22;3.22;;;2.92;;
16642;SDS011;8435;52.184;5.406;2023-05-20T07:13:49;3.10;;;2.80;;
16642;SDS011;8435;52.184;5.406;2023-05-20T07:16:17;3.38;;;2.53;;
16642;SDS011;8435;52.184;5.406;2023-05-20T07:18:44;3.35;;;2.40;;
16642;SDS011;8435;52.184;5.406;2023-05-20T07:21:11;3.03;;;2.72;;
16642;SDS011;8435;52.184;5.406;2023-05-20T07:23:38;2.60;;;2.33;;
16642;SDS011;8435;52.184;5.406;2023-05-20T07:26:06;2.80;;;2.40;;
16642;SDS011;8435;52.184;5.406;2023-05-20T07:28:36;2.60;;;2.40;;
16642;SDS011;8435;52.184;5.406;2023-05-20T07:31:03;2.42;;;2.22;;
16642;SDS011;8435;52.184;5.406;2023-05-20T07:33:30;2.70;;;2.45;;
16642;SDS011;8435;52.184;5.406;2023-05-20T07:35:57;4.63;;;2.90;;
16642;SDS011;8435;52.184;5.406;2023-05-20T07:38:27;3.05;;;2.78;;
16642;SDS011;8435;52.184;5.406;2023-05-20T07:40:53;2.33;;;2.13;;
16642;SDS011;8435;52.184;5.406;2023-05-20T07:43:22;4.60;;;2.47;;
16642;SDS011;8435;52.184;5.406;2023-05-20T07:45:48;2.55;;;2.35;;
16642;SDS011;8435;52.184;5.406;2023-05-20T07:48:15;2.38;;;2.17;;
16642;SDS011;8435;52.184;5.406;2023-05-20T07:50:43;2.80;;;2.60;;
16642;SDS011;8435;52.184;5.406;2023-05-20T07:53:09;2.42;;;2.22;;
16642;SDS011;8435;52.184;5.406;2023-05-20T07:55:36;2.75;;;2.55;;
16642;SDS011;8435;52.184;5.406;2023-05-20T07:58:03;4.05;;;2.63;;
16642;SDS011;8435;52.184;5.406;2023-05-20T08:00:35;2.53;;;2.33;;
16642;SDS011;8435;52.184;5.406;2023-05-20T08:03:02;2.50;;;2.30;;
16642;SDS011;8435;52.184;5.406;2023-05-20T08:05:29;2.28;;;2.13;;
16642;SDS011;8435;52.184;5.406;2023-05-20T08:07:55;2.15;;;1.98;;
16642;SDS011;8435;52.184;5.406;2023-05-20T08:10:22;3.38;;;2.72;;
16642;SDS011;8435;52.184;5.406;2023-05-20T08:12:49;2.55;;;2.35;;
16642;SDS011;8435;52.184;5.406;2023-05-20T08:15:16;3.05;;;2.15;;
16642;SDS011;8435;52.184;5.406;2023-05-20T08:17:44;2.38;;;2.17;;
16642;SDS011;8435;52.184;5.406;2023-05-20T08:20:11;2.20;;;2.00;;
16642;SDS011;8435;52.184;5.406;2023-05-20T08:22:38;2.28;;;2.17;;
16642;SDS011;8435;52.184;5.406;2023-05-20T08:25:06;2.83;;;1.98;;
16642;SDS011;8435;52.184;5.406;2023-05-20T08:27:34;2.45;;;2.25;;
16642;SDS011;8435;52.184;5.406;2023-05-20T08:30:01;6.75;;;2.38;;
16642;SDS011;8435;52.184;5.406;2023-05-20T08:32:28;2.50;;;2.22;;
16642;SDS011;8435;52.184;5.406;2023-05-20T08:34:57;2.30;;;2.10;;
16642;SDS011;8435;52.184;5.406;2023-05-20T08:37:25;2.58;;;2.38;;
16642;SDS011;8435;52.184;5.406;2023-05-20T08:39:53;2.35;;;2.15;;
16642;SDS011;8435;52.184;5.406;2023-05-20T08:42:20;1.77;;;1.67;;
16642;SDS011;8435;52.184;5.406;2023-05-20T08:44:48;2.30;;;2.10;;
16642;SDS011;8435;52.184;5.406;2023-05-20T08:47:19;2.20;;;1.95;;
16642;SDS011;8435;52.184;5.406;2023-05-20T08:49:46;2.08;;;1.80;;
16642;SDS011;8435;52.184;5.406;2023-05-20T08:52:15;2.60;;;1.50;;
16642;SDS011;8435;52.184;5.406;2023-05-20T08:54:47;2.20;;;2.00;;
16642;SDS011;8435;52.184;5.406;2023-05-20T08:57:17;2.83;;;1.80;;
16642;SDS011;8435;52.184;5.406;2023-05-20T08:59:44;2.00;;;1.60;;
16642;SDS011;8435;52.184;5.406;2023-05-20T09:02:12;1.92;;;1.73;;
16642;SDS011;8435;52.184;5.406;2023-05-20T09:04:39;1.85;;;1.73;;
16642;SDS011;8435;52.184;5.406;2023-05-20T09:07:06;1.25;;;1.15;;
16642;SDS011;8435;52.184;5.406;2023-05-20T09:09:38;2.53;;;1.45;;
16642;SDS011;8435;52.184;5.406;2023-05-20T09:12:08;2.03;;;1.80;;
16642;SDS011;8435;52.184;5.406;2023-05-20T09:14:35;1.65;;;1.60;;
16642;SDS011;8435;52.184;5.406;2023-05-20T09:17:03;5.97;;;1.95;;
16642;SDS011;8435;52.184;5.406;2023-05-20T09:19:32;4.03;;;1.55;;
16642;SDS011;8435;52.184;5.406;2023-05-20T09:21:59;1.60;;;1.50;;
16642;SDS011;8435;52.184;5.406;2023-05-20T09:24:29;2.45;;;1.50;;
16642;SDS011;8435;52.184;5.406;2023-05-20T09:26:58;1.80;;;1.65;;
16642;SDS011;8435;52.184;5.406;2023-05-20T09:29:25;2.17;;;1.48;;
16642;SDS011;8435;52.184;5.406;2023-05-20T09:31:52;2.53;;;1.35;;
16642;SDS011;8435;52.184;5.406;2023-05-20T09:34:21;2.35;;;1.40;;
16642;SDS011;8435;52.184;5.406;2023-05-20T09:36:48;2.85;;;1.85;;
16642;SDS011;8435;52.184;5.406;2023-05-20T09:39:16;2.35;;;1.50;;
16642;SDS011;8435;52.184;5.406;2023-05-20T09:41:51;3.83;;;1.35;;
16642;SDS011;8435;52.184;5.406;2023-05-20T09:44:24;1.80;;;1.52;;
16642;SDS011;8435;52.184;5.406;2023-05-20T09:46:52;2.13;;;1.60;;
16642;SDS011;8435;52.184;5.406;2023-05-20T09:49:22;2.55;;;1.40;;
16642;SDS011;8435;52.184;5.406;2023-05-20T09:51:50;1.67;;;1.33;;
16642;SDS011;8435;52.184;5.406;2023-05-20T09:54:18;1.98;;;1.40;;
16642;SDS011;8435;52.184;5.406;2023-05-20T09:56:46;1.65;;;1.42;;
16642;SDS011;8435;52.184;5.406;2023-05-20T09:59:14;2.25;;;1.42;;
16642;SDS011;8435;52.184;5.406;2023-05-20T10:01:43;2.35;;;1.80;;
16642;SDS011;8435;52.184;5.406;2023-05-20T10:04:10;3.60;;;1.65;;
16642;SDS011;8435;52.184;5.406;2023-05-20T10:06:45;2.20;;;1.63;;
16642;SDS011;8435;52.184;5.406;2023-05-20T10:09:35;2.95;;;1.63;;
16642;SDS011;8435;52.184;5.406;2023-05-20T10:12:10;1.98;;;1.52;;
16642;SDS011;8435;52.184;5.406;2023-05-20T10:14:48;2.63;;;1.60;;
16642;SDS011;8435;52.184;5.406;2023-05-20T10:17:27;2.03;;;1.42;;
16642;SDS011;8435;52.184;5.406;2023-05-20T10:20:01;4.18;;;1.73;;
16642;SDS011;8435;52.184;5.406;2023-05-20T10:22:35;1.65;;;1.55;;
16642;SDS011;8435;52.184;5.406;2023-05-20T10:25:03;1.85;;;1.75;;
16642;SDS011;8435;52.184;5.406;2023-05-20T10:27:41;1.85;;;1.70;;
16642;SDS011;8435;52.184;5.406;2023-05-20T10:30:14;2.15;;;1.90;;
16642;SDS011;8435;52.184;5.406;2023-05-20T10:32:47;2.13;;;1.70;;
16642;SDS011;8435;52.184;5.406;2023-05-20T10:35:19;1.80;;;1.63;;
16642;SDS011;8435;52.184;5.406;2023-05-20T10:37:50;2.45;;;1.67;;
16642;SDS011;8435;52.184;5.406;2023-05-20T10:40:17;1.52;;;1.35;;
16642;SDS011;8435;52.184;5.406;2023-05-20T10:42:45;3.50;;;1.60;;
16642;SDS011;8435;52.184;5.406;2023-05-20T10:45:23;2.13;;;1.60;;
16642;SDS011;8435;52.184;5.406;2023-05-20T10:47:54;3.47;;;1.92;;
16642;SDS011;8435;52.184;5.406;2023-05-20T10:50:25;1.75;;;1.65;;
16642;SDS011;8435;52.184;5.406;2023-05-20T10:52:54;2.58;;;1.42;;
16642;SDS011;8435;52.184;5.406;2023-05-20T10:55:22;4.82;;;1.70;;
16642;SDS011;8435;52.184;5.406;2023-05-20T10:57:50;2.28;;;1.63;;
16642;SDS011;8435;52.184;5.406;2023-05-20T11:00:16;1.92;;;1.60;;
16642;SDS011;8435;52.184;5.406;2023-05-20T11:02:45;2.47;;;1.52;;
16642;SDS011;8435;52.184;5.406;2023-05-20T11:05:14;3.42;;;1.65;;
16642;SDS011;8435;52.184;5.406;2023-05-20T11:07:42;3.28;;;1.88;;
16642;SDS011;8435;52.184;5.406;2023-05-20T11:10:09;2.75;;;1.58;;
16642;SDS011;8435;52.184;5.406;2023-05-20T11:12:36;4.03;;;1.60;;
16642;SDS011;8435;52.184;5.406;2023-05-20T11:15:03;3.53;;;1.55;;
16642;SDS011;8435;52.184;5.406;2023-05-20T11:17:30;1.65;;;1.55;;
16642;SDS011;8435;52.184;5.406;2023-05-20T11:20:07;2.83;;;1.73;;
16642;SDS011;8435;52.184;5.406;2023-05-20T11:22:38;2.45;;;1.23;;
16642;SDS011;8435;52.184;5.406;2023-05-20T11:25:05;2.08;;;1.63;;
16642;SDS011;8435;52.184;5.406;2023-05-20T11:27:33;2.78;;;1.63;;
16642;SDS011;8435;52.184;5.406;2023-05-20T11:30:02;2.65;;;1.83;;
16642;SDS011;8435;52.184;5.406;2023-05-20T11:32:32;1.98;;;1.50;;
16642;SDS011;8435;52.184;5.406;2023-05-20T11:34:59;2.05;;;1.80;;
16642;SDS011;8435;52.184;5.406;2023-05-20T11:37:26;2.72;;;1.63;;
16642;SDS011;8435;52.184;5.406;2023-05-20T11:40:04;2.05;;;1.80;;
16642;SDS011;8435;52.184;5.406;2023-05-20T11:42:33;1.70;;;1.38;;
16642;SDS011;8435;52.184;5.406;2023-05-20T11:45:00;2.47;;;1.70;;
16642;SDS011;8435;52.184;5.406;2023-05-20T11:47:27;1.70;;;1.60;;
16642;SDS011;8435;52.184;5.406;2023-05-20T11:49:56;2.53;;;1.60;;
16642;SDS011;8435;52.184;5.406;2023-05-20T11:52:23;1.60;;;1.50;;
16642;SDS011;8435;52.184;5.406;2023-05-20T11:54:51;1.48;;;1.33;;
16642;SDS011;8435;52.184;5.406;2023-05-20T11:57:19;1.63;;;1.52;;
16642;SDS011;8435;52.184;5.406;2023-05-20T11:59:47;1.70;;;1.52;;
16642;SDS011;8435;52.184;5.406;2023-05-20T12:02:14;1.75;;;1.65;;
16642;SDS011;8435;52.184;5.406;2023-05-20T12:04:41;1.83;;;1.40;;
16642;SDS011;8435;52.184;5.406;2023-05-20T12:07:08;1.80;;;1.50;;
16642;SDS011;8435;52.184;5.406;2023-05-20T12:09:35;1.92;;;1.83;;
16642;SDS011;8435;52.184;5.406;2023-05-20T12:12:02;1.95;;;1.55;;
16642;SDS011;8435;52.184;5.406;2023-05-20T12:14:30;2.63;;;1.95;;
16642;SDS011;8435;52.184;5.406;2023-05-20T12:16:57;2.00;;;1.80;;
16642;SDS011;8435;52.184;5.406;2023-05-20T12:19:24;1.77;;;1.48;;
16642;SDS011;8435;52.184;5.406;2023-05-20T12:21:50;2.53;;;1.67;;
16642;SDS011;8435;52.184;5.406;2023-05-20T12:24:17;1.70;;;1.60;;
16642;SDS011;8435;52.184;5.406;2023-05-20T12:26:46;2.95;;;1.67;;
16642;SDS011;8435;52.184;5.406;2023-05-20T12:29:15;1.85;;;1.55;;
16642;SDS011;8435;52.184;5.406;2023-05-20T12:31:43;1.50;;;1.40;;
16642;SDS011;8435;52.184;5.406;2023-05-20T12:34:10;2.30;;;1.55;;
16642;SDS011;8435;52.184;5.406;2023-05-20T12:36:36;2.17;;;1.45;;
16642;SDS011;8435;52.184;5.406;2023-05-20T12:39:04;1.63;;;1.52;;
16642;SDS011;8435;52.184;5.406;2023-05-20T12:41:31;3.67;;;1.38;;
16642;SDS011;8435;52.184;5.406;2023-05-20T12:43:58;3.00;;;1.50;;
16642;SDS011;8435;52.184;5.406;2023-05-20T12:46:25;1.88;;;1.38;;
16642;SDS011;8435;52.184;5.406;2023-05-20T12:48:53;2.35;;;1.42;;
16642;SDS011;8435;52.184;5.406;2023-05-20T12:51:20;2.25;;;1.60;;
16642;SDS011;8435;52.184;5.406;2023-05-20T12:53:47;3.85;;;1.40;;
16642;SDS011;8435;52.184;5.406;2023-05-20T12:56:14;2.97;;;1.67;;
16642;SDS011;8435;52.184;5.406;2023-05-20T12:58:44;2.22;;;1.45;;
16642;SDS011;8435;52.184;5.406;2023-05-20T13:01:11;1.80;;;1.40;;
16642;SDS011;8435;52.184;5.406;2023-05-20T13:03:37;4.85;;;1.88;;
16642;SDS011;8435;52.184;5.406;2023-05-20T13:06:06;4.45;;;1.92;;
16642;SDS011;8435;52.184;5.406;2023-05-20T13:08:35;2.55;;;2.30;;
16642;SDS011;8435;52.184;5.406;2023-05-20T13:11:02;3.15;;;2.85;;
16642;SDS011;8435;52.184;5.406;2023-05-20T13:13:29;5.00;;;2.92;;
16642;SDS011;8435;52.184;5.406;2023-05-20T13:15:55;3.47;;;1.90;;
16642;SDS011;8435;52.184;5.406;2023-05-20T13:18:22;2.65;;;2.45;;
16642;SDS011;8435;52.184;5.406;2023-05-20T13:20:52;3.20;;;2.95;;
16642;SDS011;8435;52.184;5.406;2023-05-20T13:23:20;2.20;;;2.05;;
16642;SDS011;8435;52.184;5.406;2023-05-20T13:25:48;2.50;;;2.25;;
16642;SDS011;8435;52.184;5.406;2023-05-20T13:28:15;2.60;;;2.40;;
16642;SDS011;8435;52.184;5.406;2023-05-20T13:30:44;2.40;;;2.20;;
16642;SDS011;8435;52.184;5.406;2023-05-20T13:33:13;2.40;;;2.05;;
16642;SDS011;8435;52.184;5.406;2023-05-20T13:35:40;2.08;;;1.98;;
16642;SDS011;8435;52.184;5.406;2023-05-20T13:38:07;3.30;;;2.90;;
16642;SDS011;8435;52.184;5.406;2023-05-20T13:40:35;3.55;;;3.20;;
16642;SDS011;8435;52.184;5.406;2023-05-20T13:43:02;2.63;;;2.10;;
16642;SDS011;8435;52.184;5.406;2023-05-20T13:45:29;3.38;;;1.90;;
16642;SDS011;8435;52.184;5.406;2023-05-20T13:47:55;2.20;;;1.75;;
16642;SDS011;8435;52.184;5.406;2023-05-20T13:50:26;3.08;;;1.60;;
16642;SDS011;8435;52.184;5.406;2023-05-20T13:52:52;2.25;;;1.60;;
16642;SDS011;8435;52.184;5.406;2023-05-20T13:55:19;2.03;;;1.75;;
16642;SDS011;8435;52.184;5.406;2023-05-20T13:57:50;5.20;;;3.85;;
16642;SDS011;8435;52.184;5.406;2023-05-20T14:00:18;5.78;;;2.70;;
16642;SDS011;8435;52.184;5.406;2023-05-20T14:02:45;3.97;;;3.58;;
16642;SDS011;8435;52.184;5.406;2023-05-20T14:05:12;5.75;;;4.90;;
16642;SDS011;8435;52.184;5.406;2023-05-20T14:07:39;5.57;;;5.05;;
16642;SDS011;8435;52.184;5.406;2023-05-20T14:10:06;5.82;;;3.80;;
16642;SDS011;8435;52.184;5.406;2023-05-20T14:12:35;8.00;;;3.10;;
16642;SDS011;8435;52.184;5.406;2023-05-20T14:15:03;3.53;;;3.22;;
16642;SDS011;8435;52.184;5.406;2023-05-20T14:17:33;3.20;;;2.90;;
16642;SDS011;8435;52.184;5.406;2023-05-20T14:20:00;4.78;;;2.28;;
16642;SDS011;8435;52.184;5.406;2023-05-20T14:22:27;2.55;;;1.92;;
16642;SDS011;8435;52.184;5.406;2023-05-20T14:24:53;5.95;;;4.78;;
16642;SDS011;8435;52.184;5.406;2023-05-20T14:27:22;2.35;;;2.10;;
16642;SDS011;8435;52.184;5.406;2023-05-20T14:29:49;2.13;;;1.92;;
16642;SDS011;8435;52.184;5.406;2023-05-20T14:32:18;4.38;;;3.08;;
16642;SDS011;8435;52.184;5.406;2023-05-20T14:34:45;3.67;;;2.30;;
16642;SDS011;8435;52.184;5.406;2023-05-20T14:37:12;2.22;;;1.90;;
16642;SDS011;8435;52.184;5.406;2023-05-20T14:39:39;4.43;;;1.70;;
16642;SDS011;8435;52.184;5.406;2023-05-20T14:42:07;2.67;;;2.47;;
16642;SDS011;8435;52.184;5.406;2023-05-20T14:44:33;3.97;;;3.20;;
16642;SDS011;8435;52.184;5.406;2023-05-20T14:47:00;2.33;;;2.13;;
16642;SDS011;8435;52.184;5.406;2023-05-20T14:49:32;2.17;;;1.38;;
16642;SDS011;8435;52.184;5.406;2023-05-20T14:52:00;1.67;;;1.58;;
16642;SDS011;8435;52.184;5.406;2023-05-20T14:54:27;1.80;;;1.50;;
16642;SDS011;8435;52.184;5.406;2023-05-20T14:56:54;1.48;;;1.38;;
16642;SDS011;8435;52.184;5.406;2023-05-20T14:59:20;1.67;;;1.58;;
16642;SDS011;8435;52.184;5.406;2023-05-20T15:01:47;1.55;;;1.45;;
16642;SDS011;8435;52.184;5.406;2023-05-20T15:04:14;1.73;;;1.52;;
16642;SDS011;8435;52.184;5.406;2023-05-20T15:06:42;1.40;;;1.30;;